sensor_id;sensor_type;location;lat;lon;timestamp;P1;durP1;ratioP1;P2;durP2;ratioP2
68479;SDS011;55469;48.934;12.050;2022-07-23T00:00:00;8.15;;;7.35;;
68479;SDS011;55469;48.934;12.050;2022-07-23T00:02:26;8.43;;;7.38;;
68479;SDS011;55469;48.934;12.050;2022-07-23T00:04:55;9.63;;;7.57;;
68479;SDS011;55469;48.934;12.050;2022-07-23T00:07:21;12.27;;;7.97;;
68479;SDS011;55469;48.934;12.050;2022-07-23T00:09:47;10.85;;;7.72;;
68479;SDS011;55469;48.934;12.050;2022-07-23T00:12:13;11.98;;;8.13;;
68479;SDS011;55469;48.934;12.050;2022-07-23T00:14:39;10.55;;;7.78;;
68479;SDS011;55469;48.934;12.050;2022-07-23T00:17:04;9.48;;;7.80;;
68479;SDS011;55469;48.934;12.050;2022-07-23T00:19:30;10.18;;;7.70;;
68479;SDS011;55469;48.934;12.050;2022-07-23T00:21:56;10.02;;;8.05;;
68479;SDS011;55469;48.934;12.050;2022-07-23T00:24:22;10.95;;;7.70;;
68479;SDS011;55469;48.934;12.050;2022-07-23T00:26:47;8.27;;;7.47;;
68479;SDS011;55469;48.934;12.050;2022-07-23T00:29:13;11.52;;;8.15;;
68479;SDS011;55469;48.934;12.050;2022-07-23T00:31:39;10.13;;;7.70;;
68479;SDS011;55469;48.934;12.050;2022-07-23T00:34:06;8.23;;;7.43;;
68479;SDS011;55469;48.934;12.050;2022-07-23T00:36:31;8.95;;;7.63;;
68479;SDS011;55469;48.934;12.050;2022-07-23T00:38:57;9.93;;;7.28;;
68479;SDS011;55469;48.934;12.050;2022-07-23T00:41:23;10.40;;;7.45;;
68479;SDS011;55469;48.934;12.050;2022-07-23T00:43:49;10.60;;;7.75;;
68479;SDS011;55469;48.934;12.050;2022-07-23T00:46:20;9.68;;;7.72;;
68479;SDS011;55469;48.934;12.050;2022-07-23T00:48:47;10.48;;;7.53;;
68479;SDS011;55469;48.934;12.050;2022-07-23T00:51:14;10.25;;;7.18;;
68479;SDS011;55469;48.934;12.050;2022-07-23T00:53:41;8.68;;;7.78;;
68479;SDS011;55469;48.934;12.050;2022-07-23T00:56:08;10.45;;;7.60;;
68479;SDS011;55469;48.934;12.050;2022-07-23T00:58:35;12.32;;;7.90;;
68479;SDS011;55469;48.934;12.050;2022-07-23T01:01:03;8.52;;;7.72;;
68479;SDS011;55469;48.934;12.050;2022-07-23T01:03:29;10.30;;;7.82;;
68479;SDS011;55469;48.934;12.050;2022-07-23T01:05:55;9.30;;;8.10;;
68479;SDS011;55469;48.934;12.050;2022-07-23T01:08:22;10.68;;;7.85;;
68479;SDS011;55469;48.934;12.050;2022-07-23T01:10:48;8.82;;;7.80;;
68479;SDS011;55469;48.934;12.050;2022-07-23T01:13:14;9.85;;;7.75;;
68479;SDS011;55469;48.934;12.050;2022-07-23T01:15:40;8.88;;;7.82;;
68479;SDS011;55469;48.934;12.050;2022-07-23T01:18:06;9.23;;;7.57;;
68479;SDS011;55469;48.934;12.050;2022-07-23T01:20:33;11.90;;;7.80;;
68479;SDS011;55469;48.934;12.050;2022-07-23T01:22:59;9.90;;;8.15;;
68479;SDS011;55469;48.934;12.050;2022-07-23T01:25:25;10.25;;;7.97;;
68479;SDS011;55469;48.934;12.050;2022-07-23T01:27:51;8.75;;;7.78;;
68479;SDS011;55469;48.934;12.050;2022-07-23T01:30:18;11.15;;;8.15;;
68479;SDS011;55469;48.934;12.050;2022-07-23T01:32:45;9.13;;;7.78;;
68479;SDS011;55469;48.934;12.050;2022-07-23T01:35:10;8.77;;;7.85;;
68479;SDS011;55469;48.934;12.050;2022-07-23T01:37:37;8.88;;;7.30;;
68479;SDS011;55469;48.934;12.050;2022-07-23T01:40:03;9.05;;;8.00;;
68479;SDS011;55469;48.934;12.050;2022-07-23T01:42:31;9.98;;;8.13;;
68479;SDS011;55469;48.934;12.050;2022-07-23T01:44:56;14.43;;;7.63;;
68479;SDS011;55469;48.934;12.050;2022-07-23T01:47:22;9.70;;;8.63;;
68479;SDS011;55469;48.934;12.050;2022-07-23T01:49:48;12.55;;;8.35;;
68479;SDS011;55469;48.934;12.050;2022-07-23T01:52:14;10.57;;;7.90;;
68479;SDS011;55469;48.934;12.050;2022-07-23T01:54:40;11.95;;;7.90;;
68479;SDS011;55469;48.934;12.050;2022-07-23T01:57:05;11.50;;;8.18;;
68479;SDS011;55469;48.934;12.050;2022-07-23T01:59:32;9.63;;;7.85;;
68479;SDS011;55469;48.934;12.050;2022-07-23T02:01:58;10.35;;;7.72;;
68479;SDS011;55469;48.934;12.050;2022-07-23T02:04:24;10.90;;;7.93;;
68479;SDS011;55469;48.934;12.050;2022-07-23T02:06:50;10.77;;;8.20;;
68479;SDS011;55469;48.934;12.050;2022-07-23T02:09:17;10.23;;;8.05;;
68479;SDS011;55469;48.934;12.050;2022-07-23T02:11:44;11.38;;;8.65;;
68479;SDS011;55469;48.934;12.050;2022-07-23T02:14:10;11.10;;;8.20;;
68479;SDS011;55469;48.934;12.050;2022-07-23T02:16:36;11.05;;;8.75;;
68479;SDS011;55469;48.934;12.050;2022-07-23T02:19:02;8.88;;;7.97;;
68479;SDS011;55469;48.934;12.050;2022-07-23T02:21:29;11.15;;;8.32;;
68479;SDS011;55469;48.934;12.050;2022-07-23T02:23:55;11.85;;;8.68;;
68479;SDS011;55469;48.934;12.050;2022-07-23T02:26:20;9.77;;;8.68;;
68479;SDS011;55469;48.934;12.050;2022-07-23T02:28:46;11.88;;;8.50;;
68479;SDS011;55469;48.934;12.050;2022-07-23T02:31:12;9.68;;;8.20;;
68479;SDS011;55469;48.934;12.050;2022-07-23T02:33:38;9.40;;;7.95;;
68479;SDS011;55469;48.934;12.050;2022-07-23T02:36:03;9.02;;;7.55;;
68479;SDS011;55469;48.934;12.050;2022-07-23T02:38:30;9.90;;;7.40;;
68479;SDS011;55469;48.934;12.050;2022-07-23T02:40:55;8.38;;;7.22;;
68479;SDS011;55469;48.934;12.050;2022-07-23T02:43:21;9.32;;;7.07;;
68479;SDS011;55469;48.934;12.050;2022-07-23T02:45:47;11.40;;;7.28;;
68479;SDS011;55469;48.934;12.050;2022-07-23T02:48:12;7.88;;;7.07;;
68479;SDS011;55469;48.934;12.050;2022-07-23T02:50:38;7.78;;;6.47;;
68479;SDS011;55469;48.934;12.050;2022-07-23T02:53:04;10.32;;;7.03;;
68479;SDS011;55469;48.934;12.050;2022-07-23T02:55:30;8.02;;;6.63;;
68479;SDS011;55469;48.934;12.050;2022-07-23T02:57:56;10.25;;;6.53;;
68479;SDS011;55469;48.934;12.050;2022-07-23T03:00:22;7.45;;;6.32;;
68479;SDS011;55469;48.934;12.050;2022-07-23T03:02:48;8.68;;;6.30;;
68479;SDS011;55469;48.934;12.050;2022-07-23T03:05:14;7.30;;;5.82;;
68479;SDS011;55469;48.934;12.050;2022-07-23T03:07:39;8.05;;;5.50;;
68479;SDS011;55469;48.934;12.050;2022-07-23T03:10:05;6.38;;;5.18;;
68479;SDS011;55469;48.934;12.050;2022-07-23T03:12:31;6.25;;;5.65;;
68479;SDS011;55469;48.934;12.050;2022-07-23T03:14:57;6.68;;;6.00;;
68479;SDS011;55469;48.934;12.050;2022-07-23T03:17:23;6.43;;;5.82;;
68479;SDS011;55469;48.934;12.050;2022-07-23T03:19:49;6.90;;;5.40;;
68479;SDS011;55469;48.934;12.050;2022-07-23T03:22:14;6.78;;;5.70;;
68479;SDS011;55469;48.934;12.050;2022-07-23T03:24:40;5.78;;;5.03;;
68479;SDS011;55469;48.934;12.050;2022-07-23T03:27:22;6.97;;;5.03;;
68479;SDS011;55469;48.934;12.050;2022-07-23T03:29:53;5.40;;;4.70;;
68479;SDS011;55469;48.934;12.050;2022-07-23T03:32:20;5.13;;;4.45;;
68479;SDS011;55469;48.934;12.050;2022-07-23T03:34:47;5.28;;;4.72;;
68479;SDS011;55469;48.934;12.050;2022-07-23T03:37:13;6.93;;;4.80;;
68479;SDS011;55469;48.934;12.050;2022-07-23T03:39:39;6.20;;;4.55;;
68479;SDS011;55469;48.934;12.050;2022-07-23T03:42:05;5.70;;;4.80;;
68479;SDS011;55469;48.934;12.050;2022-07-23T03:44:31;6.55;;;4.68;;
68479;SDS011;55469;48.934;12.050;2022-07-23T03:46:57;7.53;;;4.70;;
68479;SDS011;55469;48.934;12.050;2022-07-23T03:49:23;6.38;;;4.80;;
68479;SDS011;55469;48.934;12.050;2022-07-23T03:51:49;5.18;;;4.22;;
68479;SDS011;55469;48.934;12.050;2022-07-23T03:54:14;6.35;;;4.55;;
68479;SDS011;55469;48.934;12.050;2022-07-23T03:56:40;5.15;;;4.30;;
68479;SDS011;55469;48.934;12.050;2022-07-23T03:59:07;5.75;;;4.28;;
68479;SDS011;55469;48.934;12.050;2022-07-23T04:01:34;5.68;;;4.18;;
68479;SDS011;55469;48.934;12.050;2022-07-23T04:04:00;5.13;;;3.97;;
68479;SDS011;55469;48.934;12.050;2022-07-23T04:06:27;5.63;;;4.20;;
68479;SDS011;55469;48.934;12.050;2022-07-23T04:08:53;5.15;;;4.30;;
68479;SDS011;55469;48.934;12.050;2022-07-23T04:11:19;5.95;;;4.13;;
68479;SDS011;55469;48.934;12.050;2022-07-23T04:13:45;5.10;;;3.90;;
68479;SDS011;55469;48.934;12.050;2022-07-23T04:16:11;4.47;;;3.88;;
68479;SDS011;55469;48.934;12.050;2022-07-23T04:18:37;5.38;;;3.88;;
68479;SDS011;55469;48.934;12.050;2022-07-23T04:21:03;4.18;;;3.78;;
68479;SDS011;55469;48.934;12.050;2022-07-23T04:23:29;4.97;;;3.70;;
68479;SDS011;55469;48.934;12.050;2022-07-23T04:25:55;4.70;;;4.10;;
68479;SDS011;55469;48.934;12.050;2022-07-23T04:28:20;4.32;;;3.90;;
68479;SDS011;55469;48.934;12.050;2022-07-23T04:30:46;4.35;;;3.67;;
68479;SDS011;55469;48.934;12.050;2022-07-23T04:33:12;4.20;;;3.70;;
68479;SDS011;55469;48.934;12.050;2022-07-23T04:35:38;4.63;;;3.97;;
68479;SDS011;55469;48.934;12.050;2022-07-23T04:38:04;4.65;;;3.83;;
68479;SDS011;55469;48.934;12.050;2022-07-23T04:40:30;5.25;;;3.60;;
68479;SDS011;55469;48.934;12.050;2022-07-23T04:42:56;4.28;;;3.50;;
68479;SDS011;55469;48.934;12.050;2022-07-23T04:45:22;4.90;;;3.70;;
68479;SDS011;55469;48.934;12.050;2022-07-23T04:47:49;5.80;;;3.97;;
68479;SDS011;55469;48.934;12.050;2022-07-23T04:50:15;4.88;;;4.07;;
68479;SDS011;55469;48.934;12.050;2022-07-23T04:52:47;5.32;;;3.60;;
68479;SDS011;55469;48.934;12.050;2022-07-23T04:55:13;4.13;;;3.55;;
68479;SDS011;55469;48.934;12.050;2022-07-23T04:57:40;4.53;;;3.72;;
68479;SDS011;55469;48.934;12.050;2022-07-23T05:00:06;5.18;;;3.65;;
68479;SDS011;55469;48.934;12.050;2022-07-23T05:02:33;5.88;;;3.67;;
68479;SDS011;55469;48.934;12.050;2022-07-23T05:04:59;3.90;;;3.50;;
68479;SDS011;55469;48.934;12.050;2022-07-23T05:07:25;5.75;;;4.00;;
68479;SDS011;55469;48.934;12.050;2022-07-23T05:09:51;4.13;;;3.65;;
68479;SDS011;55469;48.934;12.050;2022-07-23T05:12:16;4.00;;;3.60;;
68479;SDS011;55469;48.934;12.050;2022-07-23T05:14:42;4.88;;;3.60;;
68479;SDS011;55469;48.934;12.050;2022-07-23T05:17:08;5.80;;;4.00;;
68479;SDS011;55469;48.934;12.050;2022-07-23T05:19:34;5.70;;;3.58;;
68479;SDS011;55469;48.934;12.050;2022-07-23T05:22:00;4.68;;;3.80;;
68479;SDS011;55469;48.934;12.050;2022-07-23T05:24:26;5.57;;;4.10;;
68479;SDS011;55469;48.934;12.050;2022-07-23T05:26:52;5.28;;;3.85;;
68479;SDS011;55469;48.934;12.050;2022-07-23T05:29:18;4.43;;;3.85;;
68479;SDS011;55469;48.934;12.050;2022-07-23T05:31:44;4.63;;;4.05;;
68479;SDS011;55469;48.934;12.050;2022-07-23T05:34:09;4.32;;;3.92;;
68479;SDS011;55469;48.934;12.050;2022-07-23T05:36:35;5.85;;;4.30;;
68479;SDS011;55469;48.934;12.050;2022-07-23T05:39:01;5.72;;;4.35;;
68479;SDS011;55469;48.934;12.050;2022-07-23T05:41:28;5.45;;;3.75;;
68479;SDS011;55469;48.934;12.050;2022-07-23T05:43:54;6.00;;;4.05;;
68479;SDS011;55469;48.934;12.050;2022-07-23T05:46:20;4.68;;;4.07;;
68479;SDS011;55469;48.934;12.050;2022-07-23T05:48:45;4.55;;;4.07;;
68479;SDS011;55469;48.934;12.050;2022-07-23T05:51:18;6.00;;;4.93;;
68479;SDS011;55469;48.934;12.050;2022-07-23T05:53:46;5.15;;;4.30;;
68479;SDS011;55469;48.934;12.050;2022-07-23T05:56:12;5.25;;;4.40;;
68479;SDS011;55469;48.934;12.050;2022-07-23T05:58:38;4.95;;;4.43;;
68479;SDS011;55469;48.934;12.050;2022-07-23T06:01:04;4.57;;;4.07;;
68479;SDS011;55469;48.934;12.050;2022-07-23T06:03:30;5.28;;;4.40;;
68479;SDS011;55469;48.934;12.050;2022-07-23T06:05:56;6.53;;;4.25;;
68479;SDS011;55469;48.934;12.050;2022-07-23T06:08:21;4.47;;;3.97;;
68479;SDS011;55469;48.934;12.050;2022-07-23T06:10:47;6.50;;;4.72;;
68479;SDS011;55469;48.934;12.050;2022-07-23T06:13:13;6.47;;;4.28;;
68479;SDS011;55469;48.934;12.050;2022-07-23T06:15:39;5.30;;;4.53;;
68479;SDS011;55469;48.934;12.050;2022-07-23T06:18:05;5.10;;;4.38;;
68479;SDS011;55469;48.934;12.050;2022-07-23T06:20:31;5.00;;;4.35;;
68479;SDS011;55469;48.934;12.050;2022-07-23T06:22:56;5.72;;;3.67;;
68479;SDS011;55469;48.934;12.050;2022-07-23T06:25:22;5.10;;;4.32;;
68479;SDS011;55469;48.934;12.050;2022-07-23T06:27:48;5.43;;;4.05;;
68479;SDS011;55469;48.934;12.050;2022-07-23T06:30:14;4.28;;;3.88;;
68479;SDS011;55469;48.934;12.050;2022-07-23T06:32:42;5.75;;;4.10;;
68479;SDS011;55469;48.934;12.050;2022-07-23T06:35:08;4.68;;;3.90;;
68479;SDS011;55469;48.934;12.050;2022-07-23T06:37:34;5.20;;;3.95;;
68479;SDS011;55469;48.934;12.050;2022-07-23T06:40:00;5.32;;;3.80;;
68479;SDS011;55469;48.934;12.050;2022-07-23T06:42:26;5.32;;;4.10;;
68479;SDS011;55469;48.934;12.050;2022-07-23T06:44:52;4.30;;;3.90;;
68479;SDS011;55469;48.934;12.050;2022-07-23T06:47:18;3.70;;;3.40;;
68479;SDS011;55469;48.934;12.050;2022-07-23T06:49:44;5.40;;;3.80;;
68479;SDS011;55469;48.934;12.050;2022-07-23T06:52:10;4.57;;;3.55;;
68479;SDS011;55469;48.934;12.050;2022-07-23T06:54:35;5.05;;;4.00;;
68479;SDS011;55469;48.934;12.050;2022-07-23T06:57:01;4.53;;;3.47;;
68479;SDS011;55469;48.934;12.050;2022-07-23T06:59:27;5.22;;;3.58;;
68479;SDS011;55469;48.934;12.050;2022-07-23T07:01:53;5.20;;;3.90;;
68479;SDS011;55469;48.934;12.050;2022-07-23T07:04:19;5.80;;;3.70;;
68479;SDS011;55469;48.934;12.050;2022-07-23T07:06:44;5.15;;;4.00;;
68479;SDS011;55469;48.934;12.050;2022-07-23T07:09:10;5.40;;;3.70;;
68479;SDS011;55469;48.934;12.050;2022-07-23T07:11:36;3.72;;;3.42;;
68479;SDS011;55469;48.934;12.050;2022-07-23T07:14:02;5.38;;;3.70;;
68479;SDS011;55469;48.934;12.050;2022-07-23T07:16:29;4.88;;;3.70;;
68479;SDS011;55469;48.934;12.050;2022-07-23T07:18:55;4.50;;;3.80;;
68479;SDS011;55469;48.934;12.050;2022-07-23T07:21:20;4.25;;;3.75;;
68479;SDS011;55469;48.934;12.050;2022-07-23T07:23:46;3.80;;;3.35;;
68479;SDS011;55469;48.934;12.050;2022-07-23T07:26:12;4.32;;;3.22;;
68479;SDS011;55469;48.934;12.050;2022-07-23T07:28:37;5.47;;;3.60;;
68479;SDS011;55469;48.934;12.050;2022-07-23T07:31:03;5.13;;;3.60;;
68479;SDS011;55469;48.934;12.050;2022-07-23T07:33:29;3.92;;;3.55;;
68479;SDS011;55469;48.934;12.050;2022-07-23T07:35:55;5.43;;;3.90;;
68479;SDS011;55469;48.934;12.050;2022-07-23T07:38:21;4.60;;;3.78;;
68479;SDS011;55469;48.934;12.050;2022-07-23T07:40:47;4.70;;;3.92;;
68479;SDS011;55469;48.934;12.050;2022-07-23T07:43:13;4.20;;;3.78;;
68479;SDS011;55469;48.934;12.050;2022-07-23T07:45:38;4.65;;;3.90;;
68479;SDS011;55469;48.934;12.050;2022-07-23T07:48:04;7.70;;;3.90;;
68479;SDS011;55469;48.934;12.050;2022-07-23T07:50:30;4.10;;;3.70;;
68479;SDS011;55469;48.934;12.050;2022-07-23T07:52:56;3.90;;;3.50;;
68479;SDS011;55469;48.934;12.050;2022-07-23T07:55:22;4.47;;;3.63;;
68479;SDS011;55469;48.934;12.050;2022-07-23T07:57:47;3.88;;;3.58;;
68479;SDS011;55469;48.934;12.050;2022-07-23T08:00:13;5.38;;;3.80;;
68479;SDS011;55469;48.934;12.050;2022-07-23T08:03:00;4.30;;;3.90;;
68479;SDS011;55469;48.934;12.050;2022-07-23T08:05:27;4.10;;;3.70;;
68479;SDS011;55469;48.934;12.050;2022-07-23T08:07:55;4.28;;;3.80;;
68479;SDS011;55469;48.934;12.050;2022-07-23T08:10:23;4.13;;;3.72;;
68479;SDS011;55469;48.934;12.050;2022-07-23T08:12:51;5.32;;;3.65;;
68479;SDS011;55469;48.934;12.050;2022-07-23T08:15:21;4.43;;;4.03;;
68479;SDS011;55469;48.934;12.050;2022-07-23T08:17:50;4.40;;;4.00;;
68479;SDS011;55469;48.934;12.050;2022-07-23T08:20:17;4.38;;;3.97;;
68479;SDS011;55469;48.934;12.050;2022-07-23T08:22:48;4.57;;;4.13;;
68479;SDS011;55469;48.934;12.050;2022-07-23T08:25:21;4.15;;;3.67;;
68479;SDS011;55469;48.934;12.050;2022-07-23T08:27:49;4.32;;;3.78;;
68479;SDS011;55469;48.934;12.050;2022-07-23T08:30:15;4.95;;;3.80;;
68479;SDS011;55469;48.934;12.050;2022-07-23T08:32:49;4.40;;;4.00;;
68479;SDS011;55469;48.934;12.050;2022-07-23T08:35:23;5.72;;;4.15;;
68479;SDS011;55469;48.934;12.050;2022-07-23T08:37:53;4.45;;;3.90;;
68479;SDS011;55469;48.934;12.050;2022-07-23T08:40:20;6.47;;;4.18;;
68479;SDS011;55469;48.934;12.050;2022-07-23T08:42:47;4.53;;;3.72;;
68479;SDS011;55469;48.934;12.050;2022-07-23T08:45:16;5.47;;;4.20;;
68479;SDS011;55469;48.934;12.050;2022-07-23T08:47:45;5.28;;;4.35;;
68479;SDS011;55469;48.934;12.050;2022-07-23T08:50:13;4.53;;;3.95;;
68479;SDS011;55469;48.934;12.050;2022-07-23T08:52:39;4.57;;;4.07;;
68479;SDS011;55469;48.934;12.050;2022-07-23T08:55:05;4.10;;;3.70;;
68479;SDS011;55469;48.934;12.050;2022-07-23T08:57:33;4.13;;;3.72;;
68479;SDS011;55469;48.934;12.050;2022-07-23T08:59:59;4.82;;;4.05;;
68479;SDS011;55469;48.934;12.050;2022-07-23T09:02:25;4.72;;;4.32;;
68479;SDS011;55469;48.934;12.050;2022-07-23T09:04:51;4.47;;;4.07;;
68479;SDS011;55469;48.934;12.050;2022-07-23T09:07:17;4.63;;;4.20;;
68479;SDS011;55469;48.934;12.050;2022-07-23T09:09:43;4.40;;;4.00;;
68479;SDS011;55469;48.934;12.050;2022-07-23T09:12:09;4.43;;;4.03;;
68479;SDS011;55469;48.934;12.050;2022-07-23T09:14:36;4.82;;;4.32;;
68479;SDS011;55469;48.934;12.050;2022-07-23T09:17:15;4.18;;;3.78;;
68479;SDS011;55469;48.934;12.050;2022-07-23T09:19:43;4.47;;;4.07;;
68479;SDS011;55469;48.934;12.050;2022-07-23T09:22:18;5.15;;;4.28;;
68479;SDS011;55469;48.934;12.050;2022-07-23T09:25:11;4.65;;;4.25;;
68479;SDS011;55469;48.934;12.050;2022-07-23T09:30:17;6.28;;;4.40;;
68479;SDS011;55469;48.934;12.050;2022-07-23T09:32:43;4.95;;;4.30;;
68479;SDS011;55469;48.934;12.050;2022-07-23T09:35:09;5.13;;;4.22;;
68479;SDS011;55469;48.934;12.050;2022-07-23T09:37:35;5.25;;;4.75;;
68479;SDS011;55469;48.934;12.050;2022-07-23T09:40:08;5.10;;;4.60;;
68479;SDS011;55469;48.934;12.050;2022-07-23T09:42:38;4.85;;;4.28;;
68479;SDS011;55469;48.934;12.050;2022-07-23T09:45:04;4.95;;;4.45;;
68479;SDS011;55469;48.934;12.050;2022-07-23T09:47:37;5.43;;;4.93;;
68479;SDS011;55469;48.934;12.050;2022-07-23T09:50:06;5.97;;;4.78;;
68479;SDS011;55469;48.934;12.050;2022-07-23T09:52:45;5.45;;;4.70;;
68479;SDS011;55469;48.934;12.050;2022-07-23T09:55:14;6.53;;;4.93;;
68479;SDS011;55469;48.934;12.050;2022-07-23T09:57:43;6.15;;;4.90;;
68479;SDS011;55469;48.934;12.050;2022-07-23T10:00:11;5.90;;;4.80;;
68479;SDS011;55469;48.934;12.050;2022-07-23T10:02:39;6.80;;;5.03;;
68479;SDS011;55469;48.934;12.050;2022-07-23T10:05:06;5.68;;;5.07;;
68479;SDS011;55469;48.934;12.050;2022-07-23T10:07:33;5.30;;;4.68;;
68479;SDS011;55469;48.934;12.050;2022-07-23T10:10:04;6.65;;;4.60;;
68479;SDS011;55469;48.934;12.050;2022-07-23T10:12:31;7.47;;;5.40;;
68479;SDS011;55469;48.934;12.050;2022-07-23T10:15:06;5.85;;;5.28;;
68479;SDS011;55469;48.934;12.050;2022-07-23T10:17:33;6.32;;;5.13;;
68479;SDS011;55469;48.934;12.050;2022-07-23T10:19:59;5.60;;;5.00;;
68479;SDS011;55469;48.934;12.050;2022-07-23T10:22:26;5.82;;;5.32;;
68479;SDS011;55469;48.934;12.050;2022-07-23T10:38:37;6.72;;;5.20;;
68479;SDS011;55469;48.934;12.050;2022-07-23T10:41:33;5.60;;;5.03;;
68479;SDS011;55469;48.934;12.050;2022-07-23T10:44:05;5.80;;;5.20;;
68479;SDS011;55469;48.934;12.050;2022-07-23T10:46:33;5.03;;;4.50;;
68479;SDS011;55469;48.934;12.050;2022-07-23T10:54:50;5.30;;;4.80;;
68479;SDS011;55469;48.934;12.050;2022-07-23T10:57:27;5.32;;;4.82;;
68479;SDS011;55469;48.934;12.050;2022-07-23T11:02:26;5.95;;;4.65;;
68479;SDS011;55469;48.934;12.050;2022-07-23T11:04:58;5.32;;;4.88;;
68479;SDS011;55469;48.934;12.050;2022-07-23T11:07:36;5.25;;;4.75;;
68479;SDS011;55469;48.934;12.050;2022-07-23T11:10:38;5.60;;;5.00;;
68479;SDS011;55469;48.934;12.050;2022-07-23T11:26:52;5.15;;;4.65;;
68479;SDS011;55469;48.934;12.050;2022-07-23T11:31:53;5.15;;;4.65;;
68479;SDS011;55469;48.934;12.050;2022-07-23T11:37:13;4.80;;;4.40;;
68479;SDS011;55469;48.934;12.050;2022-07-23T11:40:09;5.25;;;4.75;;
68479;SDS011;55469;48.934;12.050;2022-07-23T11:45:28;5.93;;;4.70;;
68479;SDS011;55469;48.934;12.050;2022-07-23T11:47:57;4.75;;;4.07;;
68479;SDS011;55469;48.934;12.050;2022-07-23T11:50:23;4.88;;;4.30;;
68479;SDS011;55469;48.934;12.050;2022-07-23T11:52:50;4.63;;;4.22;;
68479;SDS011;55469;48.934;12.050;2022-07-23T11:55:17;4.78;;;4.28;;
68479;SDS011;55469;48.934;12.050;2022-07-23T11:57:44;5.03;;;4.40;;
68479;SDS011;55469;48.934;12.050;2022-07-23T12:02:43;4.50;;;4.10;;
68479;SDS011;55469;48.934;12.050;2022-07-23T12:05:16;5.97;;;4.40;;
68479;SDS011;55469;48.934;12.050;2022-07-23T12:07:43;5.05;;;4.18;;
68479;SDS011;55469;48.934;12.050;2022-07-23T12:10:15;4.25;;;3.88;;
68479;SDS011;55469;48.934;12.050;2022-07-23T12:12:51;6.22;;;4.25;;
68479;SDS011;55469;48.934;12.050;2022-07-23T12:15:23;4.53;;;4.10;;
68479;SDS011;55469;48.934;12.050;2022-07-23T12:18:05;4.88;;;4.38;;
68479;SDS011;55469;48.934;12.050;2022-07-23T12:20:37;5.72;;;4.40;;
68479;SDS011;55469;48.934;12.050;2022-07-23T12:23:09;5.93;;;4.50;;
68479;SDS011;55469;48.934;12.050;2022-07-23T12:25:39;5.45;;;4.70;;
68479;SDS011;55469;48.934;12.050;2022-07-23T12:28:09;6.60;;;5.00;;
68479;SDS011;55469;48.934;12.050;2022-07-23T12:30:43;5.50;;;5.00;;
68479;SDS011;55469;48.934;12.050;2022-07-23T12:33:21;6.40;;;4.90;;
68479;SDS011;55469;48.934;12.050;2022-07-23T12:35:55;5.18;;;4.65;;
68479;SDS011;55469;48.934;12.050;2022-07-23T12:38:24;5.47;;;4.35;;
68479;SDS011;55469;48.934;12.050;2022-07-23T12:40:52;5.13;;;4.55;;
68479;SDS011;55469;48.934;12.050;2022-07-23T12:43:20;5.28;;;4.78;;
68479;SDS011;55469;48.934;12.050;2022-07-23T12:45:56;6.03;;;4.72;;
68479;SDS011;55469;48.934;12.050;2022-07-23T12:48:28;5.63;;;4.97;;
68479;SDS011;55469;48.934;12.050;2022-07-23T12:51:08;5.13;;;4.55;;
68479;SDS011;55469;48.934;12.050;2022-07-23T12:53:41;5.43;;;4.93;;
68479;SDS011;55469;48.934;12.050;2022-07-23T12:56:11;5.30;;;4.80;;
68479;SDS011;55469;48.934;12.050;2022-07-23T13:04:07;5.68;;;4.80;;
68479;SDS011;55469;48.934;12.050;2022-07-23T13:06:47;5.57;;;4.80;;
68479;SDS011;55469;48.934;12.050;2022-07-23T13:11:53;5.63;;;4.50;;
68479;SDS011;55469;48.934;12.050;2022-07-23T13:14:20;4.55;;;4.15;;
68479;SDS011;55469;48.934;12.050;2022-07-23T13:16:47;7.03;;;5.18;;
68479;SDS011;55469;48.934;12.050;2022-07-23T13:19:15;5.45;;;4.95;;
68479;SDS011;55469;48.934;12.050;2022-07-23T13:21:41;5.05;;;4.55;;
68479;SDS011;55469;48.934;12.050;2022-07-23T13:24:07;5.15;;;4.65;;
68479;SDS011;55469;48.934;12.050;2022-07-23T13:26:35;5.35;;;4.68;;
68479;SDS011;55469;48.934;12.050;2022-07-23T13:29:01;5.50;;;4.65;;
68479;SDS011;55469;48.934;12.050;2022-07-23T13:31:27;6.63;;;4.70;;
68479;SDS011;55469;48.934;12.050;2022-07-23T13:33:53;6.07;;;4.82;;
68479;SDS011;55469;48.934;12.050;2022-07-23T13:36:19;5.18;;;4.57;;
68479;SDS011;55469;48.934;12.050;2022-07-23T13:38:44;5.38;;;4.80;;
68479;SDS011;55469;48.934;12.050;2022-07-23T13:41:10;5.10;;;4.50;;
68479;SDS011;55469;48.934;12.050;2022-07-23T13:43:36;5.22;;;4.82;;
68479;SDS011;55469;48.934;12.050;2022-07-23T13:46:02;6.30;;;4.70;;
68479;SDS011;55469;48.934;12.050;2022-07-23T13:48:28;4.95;;;4.50;;
68479;SDS011;55469;48.934;12.050;2022-07-23T13:50:54;5.32;;;4.70;;
68479;SDS011;55469;48.934;12.050;2022-07-23T13:53:21;4.93;;;4.50;;
68479;SDS011;55469;48.934;12.050;2022-07-23T13:55:49;5.38;;;4.88;;
68479;SDS011;55469;48.934;12.050;2022-07-23T13:58:16;5.20;;;4.70;;
68479;SDS011;55469;48.934;12.050;2022-07-23T14:00:44;5.25;;;4.75;;
68479;SDS011;55469;48.934;12.050;2022-07-23T14:03:13;5.50;;;4.15;;
68479;SDS011;55469;48.934;12.050;2022-07-23T14:05:40;4.75;;;4.25;;
68479;SDS011;55469;48.934;12.050;2022-07-23T14:08:07;5.25;;;4.75;;
68479;SDS011;55469;48.934;12.050;2022-07-23T14:10:33;5.28;;;4.63;;
68479;SDS011;55469;48.934;12.050;2022-07-23T14:12:59;5.72;;;4.50;;
68479;SDS011;55469;48.934;12.050;2022-07-23T14:15:26;4.90;;;4.40;;
68479;SDS011;55469;48.934;12.050;2022-07-23T14:17:54;4.97;;;4.47;;
68479;SDS011;55469;48.934;12.050;2022-07-23T14:20:20;4.93;;;4.50;;
68479;SDS011;55469;48.934;12.050;2022-07-23T14:22:47;4.90;;;4.43;;
68479;SDS011;55469;48.934;12.050;2022-07-23T14:25:14;4.80;;;4.35;;
68479;SDS011;55469;48.934;12.050;2022-07-23T14:27:40;4.60;;;4.20;;
68479;SDS011;55469;48.934;12.050;2022-07-23T14:30:06;5.25;;;4.75;;
68479;SDS011;55469;48.934;12.050;2022-07-23T14:32:34;5.30;;;4.80;;
68479;SDS011;55469;48.934;12.050;2022-07-23T14:35:01;5.35;;;4.60;;
68479;SDS011;55469;48.934;12.050;2022-07-23T14:37:29;4.82;;;4.43;;
68479;SDS011;55469;48.934;12.050;2022-07-23T14:39:55;4.95;;;4.45;;
68479;SDS011;55469;48.934;12.050;2022-07-23T14:42:20;6.00;;;4.80;;
68479;SDS011;55469;48.934;12.050;2022-07-23T14:44:46;4.80;;;4.40;;
68479;SDS011;55469;48.934;12.050;2022-07-23T14:47:12;4.90;;;4.50;;
68479;SDS011;55469;48.934;12.050;2022-07-23T14:49:37;5.03;;;4.53;;
68479;SDS011;55469;48.934;12.050;2022-07-23T14:52:04;4.93;;;4.40;;
68479;SDS011;55469;48.934;12.050;2022-07-23T14:54:30;5.07;;;4.57;;
68479;SDS011;55469;48.934;12.050;2022-07-23T14:56:57;4.90;;;4.50;;
68479;SDS011;55469;48.934;12.050;2022-07-23T14:59:25;5.15;;;4.63;;
68479;SDS011;55469;48.934;12.050;2022-07-23T15:01:52;5.60;;;4.28;;
68479;SDS011;55469;48.934;12.050;2022-07-23T15:04:17;5.25;;;4.70;;
68479;SDS011;55469;48.934;12.050;2022-07-23T15:06:43;4.90;;;4.40;;
68479;SDS011;55469;48.934;12.050;2022-07-23T15:09:09;4.72;;;4.28;;
68479;SDS011;55469;48.934;12.050;2022-07-23T15:11:35;5.20;;;4.70;;
68479;SDS011;55469;48.934;12.050;2022-07-23T15:14:06;4.85;;;4.43;;
68479;SDS011;55469;48.934;12.050;2022-07-23T15:16:32;4.90;;;4.50;;
68479;SDS011;55469;48.934;12.050;2022-07-23T15:18:58;4.60;;;4.20;;
68479;SDS011;55469;48.934;12.050;2022-07-23T15:21:26;5.20;;;4.70;;
68479;SDS011;55469;48.934;12.050;2022-07-23T15:23:54;5.07;;;4.57;;
68479;SDS011;55469;48.934;12.050;2022-07-23T15:26:21;4.55;;;4.15;;
68479;SDS011;55469;48.934;12.050;2022-07-23T15:28:48;4.78;;;4.35;;
68479;SDS011;55469;48.934;12.050;2022-07-23T15:31:13;4.65;;;4.25;;